createdAt,value
2022-10-20T00:03:45.578Z,99.90
2022-10-20T00:08:48.198Z,99.90
2022-10-20T00:13:52.981Z,99.90
2022-10-20T00:18:56.025Z,99.90
2022-10-20T00:24:00.602Z,99.90
2022-10-20T00:29:04.158Z,99.90
2022-10-20T00:34:06.054Z,99.90
2022-10-20T00:39:08.568Z,99.90
2022-10-20T00:44:48.028Z,99.90
2022-10-20T00:49:50.483Z,99.90
2022-10-20T00:54:52.662Z,99.90
2022-10-20T00:59:54.815Z,99.90
2022-10-20T01:04:56.687Z,99.90
2022-10-20T01:09:58.612Z,99.90
2022-10-20T01:15:10.101Z,99.90
2022-10-20T01:20:20.859Z,99.90
2022-10-20T01:25:47.357Z,99.90
2022-10-20T01:30:59.960Z,99.90
2022-10-20T01:36:11.137Z,99.90
2022-10-20T01:41:24.551Z,99.90
2022-10-20T01:46:27.906Z,99.90
2022-10-20T01:51:29.765Z,99.90
2022-10-20T01:56:51.835Z,99.90
2022-10-20T02:02:00.647Z,99.90
2022-10-20T02:07:11.850Z,99.90
2022-10-20T02:12:29.543Z,99.90
2022-10-20T02:17:34.939Z,99.90
2022-10-20T02:22:39.379Z,99.90
2022-10-20T02:27:45.470Z,99.90
2022-10-20T02:32:52.481Z,99.90
2022-10-20T02:37:54.219Z,99.90
2022-10-20T02:42:56.103Z,99.90
2022-10-20T02:47:57.886Z,99.90
2022-10-20T02:52:59.728Z,99.90
2022-10-20T02:58:01.463Z,99.90
2022-10-20T03:03:04.459Z,99.90
2022-10-20T03:08:06.227Z,99.90
2022-10-20T03:13:08.059Z,99.90
2022-10-20T03:18:09.799Z,99.90
2022-10-20T03:23:12.534Z,99.90
2022-10-20T03:28:16.278Z,99.90
2022-10-20T03:33:18.067Z,99.90
2022-10-20T03:38:19.993Z,99.90
2022-10-20T03:43:21.923Z,99.90
2022-10-20T03:48:23.637Z,99.90
2022-10-20T03:53:25.411Z,99.90
2022-10-20T03:58:27.127Z,99.90
2022-10-20T04:03:28.920Z,99.90
2022-10-20T04:08:30.707Z,99.90
2022-10-20T04:13:32.724Z,99.90
2022-10-20T04:18:34.500Z,99.90
2022-10-20T04:23:36.282Z,99.90
2022-10-20T04:28:38.359Z,99.90
2022-10-20T04:33:40.092Z,99.90
2022-10-20T04:38:41.883Z,99.90
2022-10-20T04:43:43.636Z,99.90
2022-10-20T04:48:45.574Z,99.90
2022-10-20T04:53:47.431Z,99.90
2022-10-20T04:58:56.991Z,99.90
2022-10-20T05:03:58.869Z,99.90
2022-10-20T05:09:03.570Z,99.90
2022-10-20T05:14:05.562Z,99.90
2022-10-20T05:19:07.470Z,99.90
2022-10-20T05:24:18.203Z,99.90
2022-10-20T05:29:22.676Z,99.90
2022-10-20T05:34:24.471Z,99.90
2022-10-20T05:39:26.183Z,99.90
2022-10-20T05:44:28.012Z,99.90
2022-10-20T05:49:30.075Z,99.90
2022-10-20T05:54:31.910Z,99.90
2022-10-20T05:59:33.771Z,99.90
2022-10-20T06:04:35.647Z,99.90
2022-10-20T06:09:38.655Z,99.90
2022-10-20T06:14:40.395Z,99.90
2022-10-20T06:19:42.143Z,99.90
2022-10-20T06:24:43.876Z,99.90
2022-10-20T06:29:45.661Z,99.90
2022-10-20T06:34:47.669Z,99.90
2022-10-20T06:39:49.488Z,99.90
2022-10-20T06:44:51.406Z,99.90
2022-10-20T06:49:53.140Z,99.90
2022-10-20T06:54:54.894Z,99.90
2022-10-20T06:59:56.586Z,99.90
2022-10-20T07:04:58.323Z,99.90
2022-10-20T07:10:00.047Z,99.90
2022-10-20T07:15:01.884Z,99.90
2022-10-20T07:20:03.979Z,99.90
2022-10-20T07:25:07.002Z,99.90
2022-10-20T07:30:09.072Z,99.90
2022-10-20T07:35:10.844Z,99.90
2022-10-20T07:40:12.859Z,99.90
2022-10-20T07:45:14.683Z,99.90
2022-10-20T07:50:16.596Z,99.90
2022-10-20T07:55:36.909Z,99.90
2022-10-20T08:05:46.869Z,99.90
2022-10-20T08:10:48.723Z,99.90
2022-10-20T08:15:50.538Z,99.90
2022-10-20T08:20:52.484Z,99.90
2022-10-20T08:25:56.199Z,99.90
2022-10-20T08:30:57.929Z,99.90
2022-10-20T08:36:09.249Z,99.90
2022-10-20T08:41:22.846Z,96.70
2022-10-20T08:46:33.242Z,99.60
2022-10-20T08:51:38.450Z,99.70
2022-10-20T08:56:40.244Z,99.90
2022-10-20T09:01:42.720Z,99.90
2022-10-20T09:06:48.411Z,99.90
2022-10-20T09:11:51.257Z,99.90
2022-10-20T09:17:00.307Z,99.90
2022-10-20T09:22:07.576Z,99.90
2022-10-20T09:27:20.509Z,99.90
2022-10-20T09:32:49.099Z,99.90
2022-10-20T09:37:53.026Z,95.10
2022-10-20T09:43:03.198Z,91.60
2022-10-20T09:48:31.674Z,91.40
2022-10-20T09:53:52.737Z,93.60
2022-10-20T09:58:55.607Z,96.00
2022-10-20T10:04:02.160Z,98.10
2022-10-20T10:09:31.122Z,99.90
2022-10-20T10:14:35.218Z,99.90
2022-10-20T10:19:37.772Z,99.90
2022-10-20T10:24:47.560Z,99.90
2022-10-20T10:29:49.487Z,99.90
2022-10-20T10:35:12.658Z,99.70
2022-10-20T10:40:19.932Z,99.90
2022-10-20T10:45:56.809Z,99.90
2022-10-20T10:51:03.396Z,99.90
2022-10-20T10:56:20.519Z,99.90
2022-10-20T11:01:37.736Z,99.90
2022-10-20T11:07:03.357Z,99.90
2022-10-20T11:12:33.005Z,98.10
2022-10-20T11:17:38.010Z,98.30
2022-10-20T11:23:24.338Z,99.50
2022-10-20T11:28:29.864Z,98.30
2022-10-20T11:33:43.763Z,98.30
2022-10-20T11:38:49.439Z,98.60
2022-10-20T11:43:55.723Z,98.60
2022-10-20T11:49:00.333Z,99.60
2022-10-20T11:54:14.359Z,98.70
2022-10-20T11:59:45.241Z,99.90
2022-10-20T12:05:05.186Z,99.90
2022-10-20T12:10:25.405Z,99.90
2022-10-20T12:15:28.119Z,99.90
2022-10-20T12:20:29.811Z,99.90
2022-10-20T12:25:31.508Z,99.90
2022-10-20T12:30:39.090Z,99.90
2022-10-20T12:36:13.981Z,99.90
2022-10-20T12:41:34.879Z,99.90
2022-10-20T12:46:42.855Z,99.90
2022-10-20T12:51:53.134Z,99.90
2022-10-20T12:57:01.755Z,99.90
2022-10-20T13:02:09.398Z,99.90
2022-10-20T13:07:11.154Z,99.90
2022-10-20T13:12:28.942Z,99.90
2022-10-20T13:17:53.749Z,99.90
2022-10-20T13:22:56.589Z,99.90
2022-10-20T13:28:14.066Z,99.90
2022-10-20T13:33:38.879Z,99.90
2022-10-20T13:39:03.795Z,99.90
2022-10-20T13:44:15.968Z,99.90
2022-10-20T13:49:39.347Z,99.90
2022-10-20T13:54:46.890Z,99.90
2022-10-20T14:00:25.781Z,99.90
2022-10-20T14:05:37.500Z,99.90
2022-10-20T14:10:54.032Z,99.90
2022-10-20T14:15:58.035Z,99.90
2022-10-20T14:21:05.742Z,99.90
2022-10-20T14:26:15.826Z,99.90
2022-10-20T14:31:21.979Z,99.90
2022-10-20T14:41:35.614Z,99.90
2022-10-20T14:46:40.851Z,99.90
2022-10-20T14:51:56.229Z,99.90
2022-10-20T14:57:22.003Z,99.90
2022-10-20T15:02:30.149Z,99.90
2022-10-20T15:07:35.439Z,99.90
2022-10-20T15:12:37.725Z,99.90
2022-10-20T15:17:45.249Z,99.90
2022-10-20T15:22:46.991Z,99.90
2022-10-20T15:27:48.898Z,99.90
2022-10-20T15:32:51.190Z,99.90
2022-10-20T15:37:53.888Z,99.90
2022-10-20T15:42:55.624Z,99.90
2022-10-20T15:47:57.364Z,99.90
2022-10-20T15:52:59.124Z,99.90
2022-10-20T15:58:01.355Z,99.90
2022-10-20T16:03:03.820Z,99.90
2022-10-20T16:08:05.743Z,99.90
2022-10-20T16:13:07.511Z,99.90
2022-10-20T16:18:10.308Z,99.90
2022-10-20T16:23:12.055Z,99.90
2022-10-20T16:28:13.834Z,99.90
2022-10-20T16:33:15.614Z,99.90
2022-10-20T16:38:17.364Z,99.90
2022-10-20T16:43:19.115Z,99.90
2022-10-20T16:48:21.471Z,99.90
2022-10-20T16:53:24.077Z,99.90
2022-10-20T16:58:25.843Z,99.90
2022-10-20T17:03:27.869Z,99.90
2022-10-20T17:08:32.004Z,99.90
2022-10-20T17:13:35.355Z,99.90
2022-10-20T17:18:37.539Z,99.90
2022-10-20T17:23:42.806Z,99.90
2022-10-20T17:28:45.548Z,99.90
2022-10-20T17:33:47.388Z,99.90
2022-10-20T17:38:54.371Z,99.90
2022-10-20T17:43:59.384Z,99.90
2022-10-20T17:49:01.687Z,99.90
2022-10-20T17:54:04.400Z,99.90
2022-10-20T17:59:08.564Z,99.90
2022-10-20T18:04:13.114Z,99.90
2022-10-20T18:09:18.209Z,99.90
2022-10-20T18:14:20.106Z,99.90
2022-10-20T18:19:21.890Z,99.90
2022-10-20T18:24:23.616Z,99.90
2022-10-20T18:29:26.075Z,99.90
2022-10-20T18:34:27.824Z,99.90
2022-10-20T18:39:33.586Z,99.90
2022-10-20T18:44:35.365Z,99.90
2022-10-20T18:49:37.177Z,99.90
2022-10-20T18:54:39.588Z,99.90
2022-10-20T18:59:41.344Z,99.90
2022-10-20T19:04:43.095Z,99.90
2022-10-20T19:09:44.903Z,99.90
2022-10-20T19:14:46.643Z,99.90
2022-10-20T19:19:48.432Z,99.90
2022-10-20T19:24:50.184Z,99.90
2022-10-20T19:29:51.907Z,99.90
2022-10-20T19:34:53.646Z,99.90
2022-10-20T19:39:55.384Z,99.90
2022-10-20T19:44:57.110Z,99.90
2022-10-20T19:49:58.872Z,99.90
2022-10-20T19:55:01.318Z,99.90
2022-10-20T20:00:03.735Z,99.90
2022-10-20T20:05:05.740Z,99.90
2022-10-20T20:10:07.664Z,99.90
2022-10-20T20:15:09.435Z,99.90
2022-10-20T20:20:11.270Z,99.90
2022-10-20T20:25:13.259Z,99.90
2022-10-20T20:30:15.043Z,99.90
2022-10-20T20:35:16.888Z,99.90
2022-10-20T20:40:18.768Z,99.90
2022-10-20T20:45:20.523Z,99.90
2022-10-20T20:50:22.243Z,99.90
2022-10-20T20:55:24.244Z,99.90
2022-10-20T21:00:26.090Z,99.90
2022-10-20T21:05:27.827Z,99.90
2022-10-20T21:10:29.557Z,99.90
2022-10-20T21:15:31.304Z,99.90
2022-10-20T21:20:33.039Z,99.90
2022-10-20T21:25:34.801Z,99.90
2022-10-20T21:30:40.079Z,99.90
2022-10-20T21:35:41.861Z,99.90
2022-10-20T21:40:43.620Z,99.90
2022-10-20T21:45:45.341Z,99.90
2022-10-20T21:50:47.053Z,99.90
2022-10-20T21:55:48.782Z,99.90
2022-10-20T22:00:53.691Z,99.90
2022-10-20T22:05:55.464Z,99.90
2022-10-20T22:10:57.215Z,99.90
2022-10-20T22:15:59.216Z,99.90
2022-10-20T22:21:19.044Z,99.90
2022-10-20T22:26:21.008Z,99.90
2022-10-20T22:31:23.688Z,99.90
2022-10-20T22:36:27.093Z,99.90
2022-10-20T22:41:28.859Z,99.90
2022-10-20T22:46:30.593Z,99.90
2022-10-20T22:51:32.346Z,99.90
2022-10-20T22:56:34.091Z,99.90
2022-10-20T23:01:35.813Z,99.90
2022-10-20T23:06:37.679Z,99.90
2022-10-20T23:11:39.382Z,99.90
2022-10-20T23:16:41.114Z,99.90
2022-10-20T23:21:42.824Z,99.90
2022-10-20T23:26:44.583Z,99.90
2022-10-20T23:31:46.414Z,99.90
2022-10-20T23:36:48.196Z,99.90
2022-10-20T23:41:50.111Z,99.90
2022-10-20T23:46:52.054Z,99.90
2022-10-20T23:51:53.814Z,99.90
2022-10-20T23:56:55.556Z,99.90
